createdAt,value
2023-05-06T00:00:40.476Z,88.26
2023-05-06T00:01:40.455Z,87.71
2023-05-06T00:02:40.480Z,87.40
2023-05-06T00:03:40.515Z,87.34
2023-05-06T00:04:40.451Z,87.34
2023-05-06T00:05:40.410Z,87.30
2023-05-06T00:06:40.386Z,86.49
2023-05-06T00:07:40.417Z,86.05
2023-05-06T00:08:40.387Z,86.29
2023-05-06T00:09:40.355Z,86.19
2023-05-06T00:10:40.345Z,86.05
2023-05-06T00:11:40.332Z,85.53
2023-05-06T00:12:40.355Z,85.13
2023-05-06T00:13:40.299Z,85.03
2023-05-06T00:14:40.302Z,85.13
2023-05-06T00:15:40.290Z,86.08
2023-05-06T00:16:40.385Z,85.98
2023-05-06T00:17:40.290Z,86.53
2023-05-06T00:19:56.379Z,86.13
2023-05-06T00:20:57.338Z,86.74
2023-05-06T00:21:57.333Z,86.83
2023-05-06T00:22:57.333Z,87.29
2023-05-06T00:23:57.301Z,87.49
2023-05-06T00:24:57.307Z,88.10
2023-05-06T00:25:57.282Z,88.50
2023-05-06T00:26:57.257Z,88.30
2023-05-06T00:27:57.311Z,88.10
2023-05-06T00:28:57.241Z,87.95
2023-05-06T00:29:57.228Z,87.45
2023-05-06T00:30:57.212Z,87.30
2023-05-06T00:31:57.636Z,86.80
2023-05-06T00:32:57.275Z,86.80
2023-05-06T00:33:57.187Z,87.14
2023-05-06T00:34:57.157Z,87.10
2023-05-06T00:35:57.164Z,86.94
2023-05-06T00:36:57.167Z,87.00
2023-05-06T00:37:57.131Z,86.90
2023-05-06T00:38:57.104Z,86.80
2023-05-06T00:39:57.110Z,86.39
2023-05-06T00:40:57.096Z,86.59
2023-05-06T00:41:57.076Z,86.39
2023-05-06T00:42:57.048Z,86.53
2023-05-06T00:43:57.038Z,86.49
2023-05-06T00:44:57.019Z,86.49
2023-05-06T00:45:57.132Z,86.08
2023-05-06T00:46:57.006Z,86.08
2023-05-06T00:47:57.021Z,85.98
2023-05-06T00:48:56.962Z,85.88
2023-05-06T00:49:56.979Z,86.08
2023-05-06T00:50:56.985Z,86.33
2023-05-06T00:51:56.927Z,86.43
2023-05-06T00:52:56.915Z,86.63
2023-05-06T00:53:56.911Z,86.63
2023-05-06T00:54:56.949Z,87.38
2023-05-06T00:55:56.880Z,87.14
2023-05-06T00:56:56.871Z,87.59
2023-05-06T00:57:56.852Z,87.69
2023-05-06T00:58:56.829Z,87.08
2023-05-06T00:59:56.837Z,87.49
2023-05-06T01:00:56.838Z,87.59
2023-05-06T01:01:56.805Z,87.45
2023-05-06T01:02:56.866Z,87.24
2023-05-06T01:03:56.963Z,86.74
2023-05-06T01:04:56.841Z,86.77
2023-05-06T01:05:56.820Z,87.18
2023-05-06T01:06:56.772Z,87.99
2023-05-06T01:07:56.726Z,88.40
2023-05-06T01:08:56.698Z,87.59
2023-05-06T01:09:56.736Z,87.49
2023-05-06T01:10:56.704Z,87.29
2023-05-06T01:11:56.690Z,86.88
2023-05-06T01:12:56.697Z,87.08
2023-05-06T01:13:56.651Z,86.57
2023-05-06T01:14:56.675Z,86.02
2023-05-06T01:15:56.641Z,85.47
2023-05-06T01:16:56.648Z,85.82
2023-05-06T01:17:56.687Z,85.92
2023-05-06T01:18:56.636Z,86.16
2023-05-06T01:19:56.587Z,86.07
2023-05-06T01:20:56.541Z,86.07
2023-05-06T01:21:56.530Z,86.77
2023-05-06T01:22:56.575Z,87.02
2023-05-06T01:23:56.560Z,87.93
2023-05-06T01:24:56.496Z,87.73
2023-05-06T01:25:56.507Z,87.79
2023-05-06T01:26:56.474Z,87.29
2023-05-06T01:27:56.481Z,86.22
2023-05-06T01:28:56.486Z,85.41
2023-05-06T01:29:56.468Z,85.31
2023-05-06T01:30:56.538Z,85.15
2023-05-06T01:31:56.410Z,85.66
2023-05-06T01:32:56.390Z,86.16
2023-05-06T01:33:56.416Z,86.16
2023-05-06T01:34:56.353Z,86.07
2023-05-06T01:35:56.364Z,86.47
2023-05-06T01:36:56.380Z,87.73
2023-05-06T01:37:56.333Z,87.23
2023-05-06T01:38:56.360Z,86.88
2023-05-06T01:39:56.304Z,87.12
2023-05-06T01:40:56.288Z,86.98
2023-05-06T01:41:56.293Z,86.57
2023-05-06T01:42:56.257Z,86.68
2023-05-06T01:43:56.269Z,86.16
2023-05-06T01:44:56.227Z,85.35
2023-05-06T01:45:56.235Z,84.80
2023-05-06T01:46:56.205Z,84.09
2023-05-06T01:47:56.248Z,82.87
2023-05-06T01:48:56.181Z,82.51
2023-05-06T01:49:56.181Z,82.31
2023-05-06T01:50:56.152Z,82.40
2023-05-06T01:51:56.156Z,82.51
2023-05-06T01:52:56.128Z,82.75
2023-05-06T01:53:56.110Z,82.24
2023-05-06T01:54:56.104Z,82.54
2023-05-06T01:55:56.138Z,82.04
2023-05-06T01:56:56.143Z,82.65
2023-05-06T01:57:56.056Z,82.75
2023-05-06T01:58:56.042Z,83.60
2023-05-06T01:59:56.046Z,84.52
2023-05-06T02:00:56.031Z,84.38
2023-05-06T02:01:56.077Z,83.46
2023-05-06T02:02:56.146Z,83.46
2023-05-06T02:03:56.226Z,83.56
2023-05-06T02:04:55.982Z,82.75
2023-05-06T02:05:55.956Z,82.65
2023-05-06T02:06:55.943Z,82.54
2023-05-06T02:07:55.943Z,82.75
2023-05-06T02:08:55.919Z,83.26
2023-05-06T02:09:55.927Z,83.97
2023-05-06T02:10:55.924Z,83.97
2023-05-06T02:11:55.875Z,83.36
2023-05-06T02:12:55.905Z,83.26
2023-05-06T02:13:55.856Z,83.36
2023-05-06T02:14:55.857Z,83.06
2023-05-06T02:15:55.914Z,83.15
2023-05-06T02:16:55.803Z,82.45
2023-05-06T02:17:55.854Z,82.54
2023-05-06T02:18:55.819Z,82.34
2023-05-06T02:19:55.773Z,82.04
2023-05-06T02:20:55.758Z,81.93
2023-05-06T02:21:55.760Z,81.73
2023-05-06T02:22:55.769Z,81.77
2023-05-06T02:23:55.731Z,81.77
2023-05-06T02:24:55.699Z,81.77
2023-05-06T02:25:55.692Z,81.16
2023-05-06T02:26:55.679Z,81.60
2023-05-06T02:27:55.671Z,81.71
2023-05-06T02:28:55.663Z,81.40
2023-05-06T02:29:55.664Z,81.40
2023-05-06T02:30:55.628Z,81.04
2023-05-06T02:31:55.633Z,81.74
2023-05-06T02:32:55.639Z,82.05
2023-05-06T02:33:55.615Z,81.13
2023-05-06T02:34:55.568Z,81.74
2023-05-06T02:35:55.573Z,81.85
2023-05-06T02:36:55.556Z,81.74
2023-05-06T02:37:55.558Z,82.46
2023-05-06T02:38:55.514Z,82.46
2023-05-06T02:39:55.506Z,81.65
2023-05-06T02:40:55.524Z,82.76
2023-05-06T02:41:55.503Z,83.78
2023-05-06T02:42:55.524Z,83.48
2023-05-06T02:43:55.458Z,83.17
2023-05-06T02:44:55.439Z,83.37
2023-05-06T02:45:55.517Z,83.48
2023-05-06T02:46:55.425Z,82.76
2023-05-06T02:47:55.433Z,82.05
2023-05-06T02:48:55.382Z,80.83
2023-05-06T02:49:55.387Z,81.65
2023-05-06T02:50:55.357Z,81.85
2023-05-06T02:51:55.568Z,81.17
2023-05-06T02:52:55.505Z,81.38
2023-05-06T02:53:55.329Z,80.16
2023-05-06T02:54:55.315Z,81.38
2023-05-06T02:55:55.408Z,81.99
2023-05-06T02:56:55.292Z,83.21
2023-05-06T02:57:55.276Z,83.11
2023-05-06T02:58:55.249Z,83.92
2023-05-06T02:59:55.256Z,82.43
2023-05-06T03:00:55.262Z,83.21
2023-05-06T03:01:55.219Z,82.80
2023-05-06T03:02:55.238Z,82.70
2023-05-06T03:03:55.246Z,82.19
2023-05-06T03:04:55.190Z,83.31
2023-05-06T03:05:55.184Z,83.11
2023-05-06T03:06:55.159Z,83.31
2023-05-06T03:07:55.130Z,83.51
2023-05-06T03:08:55.126Z,84.70
2023-05-06T03:09:55.136Z,83.37
2023-05-06T03:10:55.130Z,84.70
2023-05-06T03:11:55.103Z,84.90
2023-05-06T03:12:55.167Z,83.89
2023-05-06T03:13:55.070Z,83.95
2023-05-06T03:14:55.072Z,84.15
2023-05-06T03:15:55.031Z,84.56
2023-05-06T03:16:55.108Z,83.64
2023-05-06T03:17:55.024Z,84.21
2023-05-06T03:18:55.014Z,84.21
2023-05-06T03:19:54.992Z,84.52
2023-05-06T03:20:54.957Z,83.20
2023-05-06T03:21:54.960Z,84.31
2023-05-06T03:22:54.941Z,84.62
2023-05-06T03:23:54.941Z,83.70
2023-05-06T03:24:54.934Z,84.21
2023-05-06T03:25:54.932Z,84.72
2023-05-06T03:26:54.894Z,84.62
2023-05-06T03:27:54.816Z,84.42
2023-05-06T03:28:54.833Z,84.17
2023-05-06T03:29:54.819Z,84.17
2023-05-06T03:30:54.784Z,84.07
2023-05-06T03:31:54.890Z,83.97
2023-05-06T03:32:54.886Z,83.56
2023-05-06T03:33:54.761Z,83.87
2023-05-06T03:34:54.734Z,83.87
2023-05-06T03:35:54.717Z,84.07
2023-05-06T03:36:54.704Z,84.21
2023-05-06T03:37:54.711Z,83.81
2023-05-06T03:38:54.663Z,84.31
2023-05-06T03:39:54.677Z,84.82
2023-05-06T03:40:54.639Z,84.82
2023-05-06T03:41:54.636Z,85.84
2023-05-06T03:42:54.633Z,85.23
2023-05-06T03:43:54.608Z,85.23
2023-05-06T03:44:54.624Z,85.33
2023-05-06T03:45:54.611Z,85.53
2023-05-06T03:46:54.560Z,84.92
2023-05-06T03:47:54.610Z,85.23
2023-05-06T03:48:54.591Z,85.43
2023-05-06T03:49:54.556Z,84.92
2023-05-06T03:50:54.518Z,84.92
2023-05-06T03:51:54.502Z,85.74
2023-05-06T03:52:54.515Z,85.94
2023-05-06T03:53:55.030Z,86.76
2023-05-06T03:54:54.457Z,86.86
2023-05-06T03:55:54.449Z,86.76
2023-05-06T03:56:54.450Z,86.41
2023-05-06T03:57:54.471Z,86.71
2023-05-06T03:58:54.412Z,86.21
2023-05-06T03:59:54.403Z,86.61
2023-05-06T04:00:54.399Z,86.41
2023-05-06T04:01:54.388Z,86.51
2023-05-06T04:02:54.446Z,86.51
2023-05-06T04:03:54.381Z,86.21
2023-05-06T04:04:54.333Z,86.51
2023-05-06T04:05:54.335Z,87.43
2023-05-06T04:06:54.360Z,87.12
2023-05-06T04:07:54.284Z,87.02
2023-05-06T04:08:54.282Z,86.21
2023-05-06T04:09:54.289Z,86.21
2023-05-06T04:10:54.288Z,86.41
2023-05-06T04:11:54.607Z,86.10
2023-05-06T04:12:54.259Z,86.41
2023-05-06T04:13:54.223Z,86.61
2023-05-06T04:14:54.202Z,86.51
2023-05-06T04:15:54.310Z,86.31
2023-05-06T04:16:54.201Z,86.10
2023-05-06T04:17:54.160Z,85.80
2023-05-06T04:18:54.151Z,85.90
2023-05-06T04:19:54.137Z,85.49
2023-05-06T04:20:54.142Z,86.00
2023-05-06T04:21:54.124Z,86.10
2023-05-06T04:22:54.100Z,86.07
2023-05-06T04:23:54.070Z,85.96
2023-05-06T04:24:54.066Z,85.86
2023-05-06T04:25:54.089Z,86.07
2023-05-06T04:26:54.039Z,86.16
2023-05-06T04:27:54.035Z,86.16
2023-05-06T04:28:54.016Z,86.07
2023-05-06T04:29:54.009Z,85.55
2023-05-06T04:30:54.001Z,85.52
2023-05-06T04:31:54.174Z,85.21
2023-05-06T04:32:53.992Z,84.91
2023-05-06T04:33:53.954Z,84.91
2023-05-06T04:34:53.978Z,84.80
2023-05-06T04:35:54.000Z,84.26
2023-05-06T04:36:53.911Z,84.30
2023-05-06T04:37:53.911Z,84.40
2023-05-06T04:38:53.883Z,84.05
2023-05-06T04:39:53.888Z,84.36
2023-05-06T04:40:53.868Z,84.36
2023-05-06T04:41:53.833Z,84.36
2023-05-06T04:42:53.850Z,84.26
2023-05-06T04:43:53.806Z,84.26
2023-05-06T04:44:53.822Z,84.16
2023-05-06T04:45:53.842Z,84.05
2023-05-06T04:46:53.776Z,84.16
2023-05-06T04:47:53.780Z,84.12
2023-05-06T04:48:53.764Z,83.81
2023-05-06T04:49:53.758Z,83.77
2023-05-06T04:50:53.745Z,83.23
2023-05-06T04:51:53.718Z,82.17
2023-05-06T04:52:53.697Z,81.63
2023-05-06T04:53:53.692Z,81.18
2023-05-06T04:54:53.704Z,80.07
2023-05-06T04:55:53.660Z,79.43
2023-05-06T04:56:53.649Z,79.83
2023-05-06T04:57:53.637Z,79.22
2023-05-06T04:58:53.638Z,79.22
2023-05-06T04:59:53.600Z,78.88
2023-05-06T05:00:53.652Z,78.24
2023-05-06T05:01:53.576Z,77.84
2023-05-06T05:02:53.640Z,77.29
2023-05-06T05:03:53.572Z,77.19
2023-05-06T05:04:53.555Z,76.69
2023-05-06T05:05:53.538Z,76.35
2023-05-06T05:06:53.518Z,76.55
2023-05-06T05:07:53.526Z,76.25
2023-05-06T05:08:55.240Z,75.71
2023-05-06T05:09:53.466Z,75.71
2023-05-06T05:10:53.471Z,74.90
2023-05-06T05:11:53.450Z,75.13
2023-05-06T05:12:53.527Z,75.74
2023-05-06T05:13:55.384Z,75.34
2023-05-06T05:14:53.411Z,75.04
2023-05-06T05:15:53.386Z,74.40
2023-05-06T05:16:53.449Z,74.05
2023-05-06T05:17:53.393Z,74.36
2023-05-06T05:18:53.373Z,74.76
2023-05-06T05:19:53.354Z,73.38
2023-05-06T05:20:53.330Z,71.73
2023-05-06T05:21:53.313Z,71.20
2023-05-06T05:22:53.320Z,71.13
2023-05-06T05:23:53.311Z,71.50
2023-05-06T05:24:53.286Z,71.80
2023-05-06T05:25:53.251Z,71.20
2023-05-06T05:26:53.255Z,70.96
2023-05-06T05:27:53.272Z,71.30
2023-05-06T05:28:53.243Z,71.53
2023-05-06T05:29:53.211Z,72.24
2023-05-06T05:30:53.293Z,72.24
2023-05-06T05:31:53.193Z,71.70
2023-05-06T05:32:53.269Z,71.84
2023-05-06T05:33:53.220Z,72.78
2023-05-06T05:34:53.178Z,73.08
2023-05-06T05:35:53.134Z,73.22
2023-05-06T05:36:53.145Z,73.28
2023-05-06T05:37:53.111Z,73.05
2023-05-06T05:38:53.086Z,72.58
2023-05-06T05:39:53.069Z,73.55
2023-05-06T05:40:53.088Z,75.84
2023-05-06T05:41:53.085Z,77.09
2023-05-06T05:42:53.041Z,77.53
2023-05-06T05:43:53.009Z,78.44
2023-05-06T05:44:53.000Z,78.34
2023-05-06T05:45:53.035Z,78.44
2023-05-06T05:46:53.027Z,79.35
2023-05-06T05:47:53.037Z,78.71
2023-05-06T05:48:52.994Z,78.24
2023-05-06T05:49:52.956Z,78.78
2023-05-06T05:50:52.965Z,79.49
2023-05-06T05:51:52.922Z,78.44
2023-05-06T05:52:52.902Z,77.66
2023-05-06T05:53:52.872Z,77.29
2023-05-06T05:54:52.894Z,77.29
2023-05-06T05:55:53.258Z,78.14
2023-05-06T05:56:52.858Z,78.55
2023-05-06T05:57:52.830Z,77.60
2023-05-06T05:58:52.817Z,76.21
2023-05-06T05:59:52.836Z,74.66
2023-05-06T06:00:52.796Z,75.16
2023-05-06T06:01:52.789Z,74.02
2023-05-06T06:02:52.819Z,74.22
2023-05-06T06:03:52.924Z,74.36
2023-05-06T06:04:52.919Z,73.88
2023-05-06T06:05:52.722Z,72.11
2023-05-06T06:06:52.723Z,71.10
2023-05-06T06:07:52.690Z,72.00
2023-05-06T06:08:52.727Z,71.53
2023-05-06T06:09:52.658Z,71.44
2023-05-06T06:10:52.666Z,72.34
2023-05-06T06:11:52.649Z,71.70
2023-05-06T06:12:52.727Z,71.16
2023-05-06T06:13:52.663Z,70.86
2023-05-06T06:14:52.634Z,70.73
2023-05-06T06:15:52.748Z,70.39
2023-05-06T06:16:52.580Z,69.76
2023-05-06T06:17:52.577Z,69.02
2023-05-06T06:18:52.546Z,68.35
2023-05-06T06:19:52.579Z,70.66
2023-05-06T06:22:08.602Z,72.88
2023-05-06T06:23:09.584Z,73.38
2023-05-06T06:24:09.552Z,73.58
2023-05-06T06:25:09.741Z,73.88
2023-05-06T06:26:12.114Z,74.29
2023-05-06T06:27:09.521Z,74.52
2023-05-06T06:28:09.503Z,74.52
2023-05-06T06:29:09.501Z,74.52
2023-05-06T06:30:09.542Z,74.90
2023-05-06T06:31:09.476Z,74.39
2023-05-06T06:32:09.579Z,73.68
2023-05-06T06:33:09.467Z,73.48
2023-05-06T06:34:09.443Z,72.74
2023-05-06T06:35:09.649Z,72.51
2023-05-06T06:36:09.413Z,72.07
2023-05-06T06:37:09.414Z,71.16
2023-05-06T06:38:09.388Z,72.00
2023-05-06T06:39:09.357Z,72.94
2023-05-06T06:40:09.361Z,73.41
2023-05-06T06:41:09.333Z,74.52
2023-05-06T06:42:09.357Z,73.68
2023-05-06T06:43:09.297Z,72.71
2023-05-06T06:44:09.306Z,71.87
2023-05-06T06:45:09.430Z,70.36
2023-05-06T06:46:09.305Z,70.09
2023-05-06T06:47:09.272Z,70.70
2023-05-06T06:48:09.270Z,70.36
2023-05-06T06:49:09.223Z,71.06
2023-05-06T06:50:09.208Z,69.69
2023-05-06T06:51:09.216Z,68.65
2023-05-06T06:52:09.181Z,70.06
2023-05-06T06:53:09.169Z,70.73
2023-05-06T06:54:09.160Z,69.69
2023-05-06T06:55:09.266Z,70.43
2023-05-06T06:56:09.152Z,69.29
2023-05-06T06:57:09.125Z,71.16
2023-05-06T06:58:09.145Z,71.43
2023-05-06T06:59:09.108Z,70.43
2023-05-06T07:00:09.088Z,69.69
2023-05-06T07:01:09.084Z,68.72
2023-05-06T07:02:09.063Z,69.06
2023-05-06T07:03:09.089Z,70.19
2023-05-06T07:04:09.061Z,70.89
2023-05-06T07:05:09.196Z,70.83
2023-05-06T07:06:09.037Z,72.81
2023-05-06T07:07:08.980Z,73.45
2023-05-06T07:08:08.991Z,74.73
2023-05-06T07:09:08.977Z,75.63
2023-05-06T07:10:08.951Z,75.63
2023-05-06T07:11:08.932Z,76.14
2023-05-06T07:12:08.933Z,75.50
2023-05-06T07:13:08.965Z,75.63
2023-05-06T07:14:08.900Z,75.94
2023-05-06T07:15:09.363Z,74.90
2023-05-06T07:16:08.874Z,74.66
2023-05-06T07:17:08.883Z,74.76
2023-05-06T07:18:08.918Z,73.52
2023-05-06T07:19:08.825Z,74.26
2023-05-06T07:20:08.855Z,74.55
2023-05-06T07:21:08.813Z,73.28
2023-05-06T07:22:08.820Z,73.68
2023-05-06T07:23:08.779Z,72.74
2023-05-06T07:24:08.769Z,72.10
2023-05-06T07:25:09.430Z,71.56
2023-05-06T07:26:08.745Z,71.03
2023-05-06T07:27:08.719Z,71.63
2023-05-06T07:28:08.720Z,70.23
2023-05-06T07:29:08.713Z,71.13
2023-05-06T07:30:08.679Z,71.60
2023-05-06T07:31:08.707Z,71.83
2023-05-06T07:32:08.674Z,73.18
2023-05-06T07:33:08.642Z,73.44
2023-05-06T07:34:08.633Z,72.61
2023-05-06T07:35:08.831Z,71.47
2023-05-06T07:36:08.621Z,71.33
2023-05-06T07:37:08.614Z,69.96
2023-05-06T07:38:08.576Z,69.02
2023-05-06T07:39:08.582Z,67.32
2023-05-06T07:40:08.585Z,67.38
2023-05-06T07:41:08.539Z,67.61
2023-05-06T07:42:08.540Z,68.22
2023-05-06T07:43:08.508Z,68.32
2023-05-06T07:44:08.534Z,68.82
2023-05-06T07:45:08.606Z,69.56
2023-05-06T07:46:08.484Z,68.45
2023-05-06T07:47:08.504Z,68.42
2023-05-06T07:48:08.499Z,68.92
2023-05-06T07:49:08.449Z,68.12
2023-05-06T07:50:08.436Z,67.82
2023-05-06T07:51:08.397Z,68.35
2023-05-06T07:52:08.398Z,68.22
2023-05-06T07:53:08.401Z,68.29
2023-05-06T07:54:08.394Z,67.76
2023-05-06T07:55:08.702Z,66.99
2023-05-06T07:56:08.340Z,67.42
2023-05-06T07:57:08.418Z,66.49
2023-05-06T07:58:08.312Z,65.92
2023-05-06T07:59:08.300Z,67.72
2023-05-06T08:00:08.333Z,66.82
2023-05-06T08:01:08.276Z,66.46
2023-05-06T08:02:08.291Z,65.82
2023-05-06T08:03:08.357Z,65.65
2023-05-06T08:04:08.370Z,67.42
2023-05-06T08:05:08.335Z,67.55
2023-05-06T08:06:08.199Z,67.32
2023-05-06T08:07:08.194Z,67.39
2023-05-06T08:08:08.218Z,66.39
2023-05-06T08:09:08.156Z,67.19
2023-05-06T08:10:08.181Z,66.25
2023-05-06T08:11:08.130Z,64.99
2023-05-06T08:12:08.149Z,64.36
2023-05-06T08:13:08.155Z,64.46
2023-05-06T08:14:08.100Z,64.83
2023-05-06T08:15:08.249Z,62.16
2023-05-06T08:16:08.220Z,63.17
2023-05-06T08:17:08.203Z,61.96
2023-05-06T08:18:20.862Z,62.43
2023-05-06T08:19:08.051Z,62.43
2023-05-06T08:20:08.023Z,62.90
2023-05-06T08:21:08.008Z,62.06
2023-05-06T08:22:08.008Z,62.66
2023-05-06T08:23:07.987Z,62.34
2023-05-06T08:24:07.992Z,62.26
2023-05-06T08:25:08.090Z,62.59
2023-05-06T08:26:07.955Z,63.69
2023-05-06T08:27:07.939Z,63.89
2023-05-06T08:28:07.959Z,64.06
2023-05-06T08:29:07.920Z,63.96
2023-05-06T08:30:07.901Z,63.66
2023-05-06T08:31:07.872Z,63.66
2023-05-06T08:32:07.946Z,63.96
2023-05-06T08:33:07.938Z,64.76
2023-05-06T08:34:07.853Z,64.00
2023-05-06T08:35:07.882Z,64.36
2023-05-06T08:36:07.824Z,64.06
2023-05-06T08:37:07.794Z,64.16
2023-05-06T08:38:07.794Z,64.79
2023-05-06T08:39:07.759Z,64.92
2023-05-06T08:40:07.756Z,66.09
2023-05-06T08:41:07.753Z,66.99
2023-05-06T08:42:07.744Z,67.15
2023-05-06T08:43:07.710Z,68.19
2023-05-06T08:44:07.774Z,68.35
2023-05-06T08:45:07.780Z,67.92
2023-05-06T08:46:07.734Z,66.89
2023-05-06T08:47:07.681Z,66.78
2023-05-06T08:48:07.652Z,67.49
2023-05-06T08:49:07.637Z,69.22
2023-05-06T08:50:07.638Z,68.59
2023-05-06T08:51:07.598Z,68.26
2023-05-06T08:52:07.645Z,68.12
2023-05-06T08:53:07.591Z,67.42
2023-05-06T08:54:07.566Z,66.89
2023-05-06T08:55:07.619Z,66.25
2023-05-06T08:56:07.540Z,65.83
2023-05-06T08:57:07.914Z,65.69
2023-05-06T08:58:07.525Z,64.42
2023-05-06T08:59:07.540Z,64.49
2023-05-06T09:00:07.528Z,64.59
2023-05-06T09:01:07.519Z,63.92
2023-05-06T09:02:07.496Z,63.72
2023-05-06T09:03:07.578Z,64.00
2023-05-06T09:04:07.470Z,63.56
2023-05-06T09:05:07.457Z,62.39
2023-05-06T09:06:07.421Z,62.96
2023-05-06T09:07:07.384Z,62.06
2023-05-06T09:08:07.396Z,62.16
2023-05-06T09:09:07.370Z,62.49
2023-05-06T09:10:07.402Z,62.15
2023-05-06T09:11:07.362Z,62.75
2023-05-06T09:12:07.339Z,63.25
2023-05-06T09:13:07.329Z,63.65
2023-05-06T09:14:07.323Z,64.12
2023-05-06T09:15:07.321Z,63.92
2023-05-06T09:16:07.300Z,63.62
2023-05-06T09:17:07.311Z,63.35
2023-05-06T09:18:07.260Z,63.25
2023-05-06T09:19:07.233Z,64.25
2023-05-06T09:20:07.239Z,64.28
2023-05-06T09:21:07.247Z,64.28
2023-05-06T09:22:07.192Z,64.15
2023-05-06T09:23:07.205Z,64.03
2023-05-06T09:24:07.160Z,63.32
2023-05-06T09:25:07.258Z,62.92
2023-05-06T09:26:07.205Z,62.12
2023-05-06T09:27:08.429Z,62.39
2023-05-06T09:28:07.119Z,62.19
2023-05-06T09:29:07.115Z,62.26
2023-05-06T09:30:07.132Z,61.46
2023-05-06T09:31:07.258Z,61.83
2023-05-06T09:32:07.081Z,61.69
2023-05-06T09:33:07.064Z,62.82
2023-05-06T09:34:07.034Z,62.82
2023-05-06T09:35:07.061Z,63.39
2023-05-06T09:36:07.018Z,63.69
2023-05-06T09:37:07.007Z,63.29
2023-05-06T09:38:07.384Z,62.76
2023-05-06T09:39:07.004Z,61.76
2023-05-06T09:40:06.989Z,61.63
2023-05-06T09:41:06.977Z,61.51
2023-05-06T09:42:06.961Z,59.83
2023-05-06T09:43:06.976Z,61.07
2023-05-06T09:44:06.961Z,62.02
2023-05-06T09:45:06.944Z,61.42
2023-05-06T09:46:07.023Z,61.65
2023-05-06T09:47:06.932Z,61.79
2023-05-06T09:48:06.938Z,61.49
2023-05-06T09:49:06.896Z,61.99
2023-05-06T09:50:06.837Z,60.99
2023-05-06T09:51:06.851Z,60.72
2023-05-06T09:52:06.829Z,60.59
2023-05-06T09:53:06.812Z,59.39
2023-05-06T09:54:06.809Z,59.30
2023-05-06T09:55:06.768Z,59.27
2023-05-06T09:56:06.769Z,58.97
2023-05-06T09:57:06.744Z,60.36
2023-05-06T09:58:06.727Z,60.92
2023-05-06T09:59:06.719Z,60.55
2023-05-06T10:00:06.730Z,60.35
2023-05-06T10:01:06.718Z,61.08
2023-05-06T10:02:06.722Z,61.15
2023-05-06T10:03:06.818Z,59.98
2023-05-06T10:04:06.901Z,60.68
2023-05-06T10:05:06.732Z,61.88
2023-05-06T10:06:06.620Z,62.28
2023-05-06T10:07:06.661Z,62.45
2023-05-06T10:08:06.612Z,62.02
2023-05-06T10:09:06.568Z,60.69
2023-05-06T10:10:06.585Z,60.49
2023-05-06T10:11:06.547Z,60.49
2023-05-06T10:12:06.538Z,60.29
2023-05-06T10:13:06.605Z,59.27
2023-05-06T10:14:06.524Z,58.76
2023-05-06T10:15:06.519Z,58.24
2023-05-06T10:16:06.532Z,57.51
2023-05-06T10:17:06.473Z,57.58
2023-05-06T10:18:06.557Z,55.63
2023-05-06T10:19:06.583Z,54.91
2023-05-06T10:20:06.431Z,53.89
2023-05-06T10:21:06.426Z,53.96
2023-05-06T10:22:06.453Z,52.44
2023-05-06T10:23:06.389Z,53.21
2023-05-06T10:24:06.391Z,53.61
2023-05-06T10:25:06.380Z,53.46
2023-05-06T10:26:06.350Z,54.35
2023-05-06T10:27:06.355Z,52.64
2023-05-06T10:28:06.794Z,51.15
2023-05-06T10:29:06.332Z,51.54
2023-05-06T10:30:06.292Z,50.78
2023-05-06T10:31:06.286Z,50.35
2023-05-06T10:32:06.392Z,48.94
2023-05-06T10:33:06.297Z,49.46
2023-05-06T10:34:06.238Z,49.24
2023-05-06T10:35:06.228Z,49.07
2023-05-06T10:36:06.221Z,50.28
2023-05-06T10:37:06.212Z,49.73
2023-05-06T10:38:06.186Z,50.82
2023-05-06T10:39:06.176Z,50.31
2023-05-06T10:40:06.155Z,52.17
2023-05-06T10:41:06.161Z,52.47
2023-05-06T10:42:06.144Z,50.26
2023-05-06T10:43:06.123Z,49.84
2023-05-06T10:44:06.164Z,49.41
2023-05-06T10:45:06.112Z,48.69
2023-05-06T10:46:06.196Z,50.38
2023-05-06T10:47:06.088Z,46.79
2023-05-06T10:48:06.098Z,47.28
2023-05-06T10:49:06.110Z,48.27
2023-05-06T10:50:06.039Z,49.37
2023-05-06T10:51:06.013Z,46.81
2023-05-06T10:52:06.034Z,47.49
2023-05-06T10:53:05.998Z,48.25
2023-05-06T10:54:05.963Z,48.05
2023-05-06T10:55:06.034Z,48.25
2023-05-06T10:56:05.982Z,48.84
2023-05-06T10:57:05.940Z,48.82
2023-05-06T10:58:05.924Z,48.50
2023-05-06T10:59:05.923Z,49.27
2023-05-06T11:00:05.940Z,47.90
2023-05-06T11:01:05.953Z,48.42
2023-05-06T11:02:05.913Z,49.41
2023-05-06T11:03:05.961Z,49.79
2023-05-06T11:04:05.835Z,49.11
2023-05-06T11:05:05.864Z,49.54
2023-05-06T11:06:05.813Z,49.21
2023-05-06T11:07:05.810Z,49.61
2023-05-06T11:08:05.793Z,47.11
2023-05-06T11:09:05.819Z,48.14
2023-05-06T11:10:05.789Z,47.55
2023-05-06T11:11:05.759Z,47.67
2023-05-06T11:12:05.767Z,48.57
2023-05-06T11:13:05.795Z,48.17
2023-05-06T11:14:05.721Z,52.26
2023-05-06T11:15:05.728Z,50.45
2023-05-06T11:16:05.689Z,48.62
2023-05-06T11:17:05.824Z,49.84
2023-05-06T11:18:05.728Z,49.44
2023-05-06T11:19:05.672Z,49.61
2023-05-06T11:20:05.641Z,48.82
2023-05-06T11:21:05.656Z,48.32
2023-05-06T11:22:05.615Z,46.64
2023-05-06T11:23:05.605Z,46.26
2023-05-06T11:24:05.592Z,46.81
2023-05-06T11:25:05.588Z,47.06
2023-05-06T11:26:05.559Z,46.15
2023-05-06T11:27:05.541Z,47.61
2023-05-06T11:28:05.547Z,48.08
2023-05-06T11:29:05.523Z,48.25
2023-05-06T11:30:05.528Z,47.86
2023-05-06T11:31:05.607Z,48.15
2023-05-06T11:32:05.495Z,45.87
2023-05-06T11:33:05.928Z,46.53
2023-05-06T11:34:05.455Z,49.07
2023-05-06T11:35:05.471Z,48.49
2023-05-06T11:36:05.462Z,49.68
2023-05-06T11:37:05.415Z,50.26
2023-05-06T11:38:05.435Z,48.77
2023-05-06T11:39:05.388Z,48.65
2023-05-06T11:40:05.392Z,46.56
2023-05-06T11:41:05.374Z,48.52
2023-05-06T11:42:05.345Z,52.24
2023-05-06T11:43:05.357Z,52.24
2023-05-06T11:44:05.321Z,51.50
2023-05-06T11:45:05.315Z,52.19
2023-05-06T11:46:05.363Z,49.91
2023-05-06T11:47:05.295Z,50.13
2023-05-06T11:48:05.312Z,51.10
2023-05-06T11:49:05.274Z,51.67
2023-05-06T11:50:05.241Z,50.53
2023-05-06T11:51:05.239Z,48.54
2023-05-06T11:52:05.248Z,48.05
2023-05-06T11:53:05.217Z,48.22
2023-05-06T11:54:05.195Z,47.90
2023-05-06T11:55:05.175Z,47.88
2023-05-06T11:56:05.165Z,47.26
2023-05-06T11:57:05.176Z,46.47
2023-05-06T11:58:05.140Z,47.61
2023-05-06T11:59:05.124Z,46.30
2023-05-06T12:00:05.101Z,46.37
2023-05-06T12:01:05.112Z,45.30
2023-05-06T12:02:05.097Z,44.39
2023-05-06T12:03:05.211Z,46.17
2023-05-06T12:04:05.212Z,45.78
2023-05-06T12:05:05.050Z,46.23
2023-05-06T12:06:05.038Z,45.01
2023-05-06T12:07:05.066Z,44.64
2023-05-06T12:08:08.468Z,44.54
2023-05-06T12:09:04.991Z,44.94
2023-05-06T12:10:05.089Z,44.24
2023-05-06T12:11:05.020Z,43.61
2023-05-06T12:12:04.989Z,43.80
2023-05-06T12:13:05.037Z,42.88
2023-05-06T12:14:04.943Z,42.99
2023-05-06T12:15:04.922Z,41.04
2023-05-06T12:16:04.967Z,41.65
2023-05-06T12:17:04.918Z,43.46
2023-05-06T12:18:04.921Z,43.46
2023-05-06T12:19:04.895Z,44.04
2023-05-06T12:20:04.904Z,44.21
2023-05-06T12:21:04.867Z,44.31
2023-05-06T12:22:10.885Z,44.53
2023-05-06T12:23:04.811Z,44.63
2023-05-06T12:24:04.831Z,44.43
2023-05-06T12:25:04.782Z,45.72
2023-05-06T12:26:04.789Z,44.98
2023-05-06T12:27:04.765Z,43.40
2023-05-06T12:28:04.749Z,43.85
2023-05-06T12:29:04.742Z,41.73
2023-05-06T12:30:05.000Z,43.26
2023-05-06T12:31:04.733Z,44.09
2023-05-06T12:32:04.784Z,46.37
2023-05-06T12:33:04.725Z,45.23
2023-05-06T12:34:04.658Z,43.43
2023-05-06T12:35:04.649Z,42.72
2023-05-06T12:36:04.659Z,41.49
2023-05-06T12:37:04.700Z,42.46
2023-05-06T12:38:04.620Z,41.91
2023-05-06T12:39:04.607Z,43.29
2023-05-06T12:40:04.591Z,44.10
2023-05-06T12:41:04.592Z,43.98
2023-05-06T12:42:04.562Z,41.17
2023-05-06T12:43:04.530Z,42.80
2023-05-06T12:44:04.538Z,42.52
2023-05-06T12:45:04.576Z,43.95
2023-05-06T12:46:04.652Z,44.74
2023-05-06T12:47:04.553Z,44.45
2023-05-06T12:48:04.520Z,41.14
2023-05-06T12:49:04.475Z,43.55
2023-05-06T12:50:04.454Z,43.34
2023-05-06T12:51:04.460Z,45.34
2023-05-06T12:52:04.424Z,43.64
2023-05-06T12:53:04.434Z,44.01
2023-05-06T12:54:04.417Z,46.55
2023-05-06T12:55:04.443Z,46.30